Date,TemperatureHighF,TemperatureAvgF,TemperatureLowF,DewpointHighF,DewpointAvgF,DewpointLowF,HumidityHigh,HumidityAvg,HumidityLow,PressureMaxIn,PressureMinIn,WindSpeedMaxMPH,WindSpeedAvgMPH,GustSpeedMaxMPH,PrecipitationSumIn
2013-1-1,32.9,30.5,24.2,30.2,27.2,18.0,94,87,77,30.11,29.98,13,4,13,0.00
2013-1-2,29.2,22.3,16.3,18.1,15.0,12.5,87,74,57,30.29,30.09,15,3,15,0.00
2013-1-3,34.1,22.7,9.0,22.3,16.0,6.2,93,76,60,30.30,30.18,22,4,22,0.00
2013-1-4,34.2,29.7,27.8,23.5,21.7,19.5,78,72,59,30.28,30.17,24,8,28,0.00
2013-1-5,37.3,30.5,26.8,26.3,22.7,18.4,82,73,61,30.44,30.20,17,4,17,0.00
2013-1-6,38.9,35.8,33.2,31.5,28.5,25.6,85,75,68,30.22,30.03,13,4,14,0.00
2013-1-7,36.2,31.0,19.9,30.3,25.6,17.7,91,81,66,30.49,30.22,14,3,15,0.00
2013-1-8,44.7,28.6,15.5,30.7,22.7,13.1,93,80,55,30.43,30.30,14,1,14,0.00
2013-1-9,44.0,35.3,22.8,40.7,32.0,20.9,95,88,67,30.51,30.24,19,4,19,0.00
2013-1-10,45.7,36.4,26.2,34.2,29.4,24.5,95,77,50,30.64,30.33,23,2,23,0.00
2013-1-11,53.1,46.2,39.8,51.1,38.9,28.4,96,77,52,30.33,30.00,23,4,25,0.00
2013-1-12,64.1,50.6,39.0,57.6,47.9,37.7,98,91,74,30.11,29.97,12,1,12,0.00
2013-1-13,69.8,62.1,53.2,56.2,53.6,49.2,95,74,61,29.97,29.84,23,4,26,0.30
2013-1-14,58.4,41.2,32.4,56.3,34.9,25.2,96,78,62,30.37,29.84,28,3,28,0.07
2013-1-15,34.3,31.0,26.2,30.4,25.7,22.5,93,80,73,30.41,30.10,11,2,11,0.00
2013-1-16,36.1,34.1,32.0,34.5,32.3,30.2,96,93,87,30.10,29.91,15,4,16,0.00
2013-1-17,35.6,33.4,30.9,30.4,28.5,27.5,90,82,75,30.21,30.03,15,4,15,0.00
2013-1-18,33.2,27.7,19.4,28.3,16.8,11.8,89,64,49,30.54,30.16,23,6,23,0.00
2013-1-19,54.1,44.8,33.1,22.9,18.2,9.6,49,34,26,30.31,29.85,29,10,31,0.00
2013-1-20,45.9,37.1,24.0,31.5,20.5,13.3,65,51,39,30.15,29.78,33,8,33,0.00
2013-1-21,27.1,23.0,13.9,20.4,14.1,1.7,78,68,55,30.13,29.93,25,5,25,0.00
2013-1-22,15.3,11.1,8.2,3.8,0.0,-2.7,74,61,48,30.35,30.09,22,7,22,0.00
2013-1-23,16.7,12.2,5.9,10.5,2.8,-0.3,82,66,51,30.39,30.15,18,4,18,0.00
2013-1-24,23.2,16.0,9.1,12.1,6.2,-3.7,88,67,33,30.61,30.12,21,3,21,0.00
2013-1-25,20.6,16.0,9.1,16.9,10.2,2.2,88,78,58,30.59,30.08,9,1,9,0.00
2013-1-26,28.0,22.6,13.6,23.5,18.4,9.9,90,84,76,30.51,30.15,11,3,11,0.00
2013-1-27,34.7,23.5,10.3,21.8,15.4,7.5,92,73,51,30.61,30.38,9,1,9,0.00
2013-1-28,50.1,41.6,32.0,49.3,38.6,21.4,97,89,60,30.39,30.05,17,5,17,0.00
2013-1-29,65.5,56.1,49.4,55.7,51.4,48.6,98,85,60,30.07,29.80,22,5,22,0.00
2013-1-30,72.0,60.5,49.9,57.9,52.4,46.3,94,77,55,29.80,29.21,37,6,37,1.15
2013-1-31,49.7,30.0,22.9,46.3,22.5,13.6,91,74,57,29.88,29.18,37,11,37,0.20
2013-2-1,23.7,17.3,11.5,19.6,9.2,3.9,84,70,58,30.41,29.85,24,7,24,0.00
2013-2-2,24.5,18.4,10.3,22.0,13.1,4.2,91,80,69,30.39,30.04,21,5,21,0.00
2013-2-3,28.6,24.0,18.3,24.0,20.5,14.0,91,86,75,30.07,29.85,21,4,21,0.00
2013-2-4,28.5,22.6,17.9,26.2,17.6,11.9,93,81,63,30.14,29.91,18,4,20,0.00
2013-2-5,32.7,29.9,27.6,30.2,27.7,25.8,93,91,84,29.99,29.86,13,2,13,0.00
2013-2-6,32.5,27.7,16.2,27.2,22.7,13.8,94,82,61,30.39,29.98,14,3,14,0.00
2013-2-7,42.4,30.3,15.4,28.9,23.0,12.9,91,75,57,30.37,30.04,26,4,26,0.00
2013-2-8,40.6,33.9,26.3,36.8,29.1,21.8,94,82,72,30.15,29.82,26,6,26,0.00
2013-2-9,34.7,25.6,18.2,22.2,18.2,14.5,87,74,50,30.44,30.15,22,3,22,0.00
2013-2-10,50.4,33.0,15.9,23.4,18.3,12.5,91,60,30,30.42,30.04,20,3,21,0.00
2013-2-11,63.2,49.8,38.4,49.1,36.1,23.3,93,63,29,30.05,29.65,36,9,40,0.00
2013-2-12,43.7,36.5,25.8,29.0,25.8,22.4,87,66,52,30.08,29.92,27,5,27,0.00
2013-2-13,41.7,31.1,21.7,33.6,27.1,19.5,94,86,61,29.96,29.71,8,1,8,0.00
2013-2-14,42.7,35.4,28.7,34.4,29.5,25.6,91,80,63,30.00,29.88,20,5,22,0.00
2013-2-15,42.2,36.0,29.1,34.7,30.4,26.3,93,80,60,30.07,29.93,18,4,18,0.00
2013-2-16,31.0,25.6,17.9,26.3,20.0,14.9,92,80,62,30.07,29.95,11,2,11,0.00
2013-2-17,24.9,19.8,17.3,17.5,13.1,6.6,90,75,58,30.32,29.95,24,5,25,0.00
2013-2-18,48.1,28.5,6.8,31.1,15.4,3.3,88,60,36,30.39,29.96,16,1,16,0.00
2013-2-19,48.7,39.0,25.3,39.1,29.7,15.6,89,71,41,29.95,29.66,23,8,30,0.00
2013-2-20,25.7,21.0,18.9,19.3,14.1,10.1,86,75,59,30.26,29.94,29,7,29,0.00
2013-2-21,27.2,21.6,18.3,19.4,15.2,13.0,86,76,61,30.41,30.23,15,4,15,0.00
2013-2-22,34.7,30.4,19.0,29.2,23.3,14.1,85,75,58,30.35,30.05,26,5,26,0.00
2013-2-23,47.7,39.2,33.8,39.5,33.8,28.5,90,81,68,30.06,29.87,13,2,13,0.00
2013-2-24,35.5,30.8,27.6,32.6,24.7,21.1,89,78,66,30.18,29.86,15,3,15,0.00
2013-2-25,44.5,34.2,25.8,27.1,23.6,21.5,86,66,47,30.27,30.09,14,2,14,0.00
2013-2-26,39.9,37.8,35.9,35.5,28.0,21.8,89,68,54,30.11,29.58,31,6,31,0.50
2013-2-27,42.6,39.0,34.7,38.5,35.8,32.3,94,88,79,29.71,29.58,21,5,30,0.27
2013-2-28,34.7,33.3,32.1,32.7,31.1,29.6,94,92,88,29.82,29.65,19,5,19,0.16
2013-3-1,33.7,30.9,27.0,30.9,26.3,21.6,91,83,75,30.00,29.81,17,4,18,0.01
2013-3-2,28.7,26.3,24.9,22.9,21.4,19.1,90,82,72,29.99,29.93,15,3,15,0.01
2013-3-3,29.3,26.1,23.3,23.8,21.3,18.4,89,82,71,30.04,29.95,15,4,15,0.00
2013-3-4,38.7,27.5,22.0,23.2,19.2,15.9,87,72,48,30.16,30.04,19,4,19,0.01
2013-3-5,50.7,32.8,16.7,26.9,18.9,12.9,91,62,23,30.14,29.73,21,3,21,0.00
2013-3-6,40.7,35.5,31.6,33.4,29.7,27.0,94,80,61,30.12,29.72,17,2,21,0.48
2013-3-7,43.3,36.0,32.8,31.8,29.7,27.3,88,78,55,30.30,30.12,16,3,16,0.02
2013-3-8,41.6,33.8,27.2,30.2,27.2,24.1,89,77,60,30.43,30.28,15,4,15,0.00
2013-3-9,58.4,39.3,21.1,33.6,24.8,18.8,94,62,27,30.45,30.21,9,1,9,0.01
2013-3-10,65.9,55.0,45.9,34.2,26.9,19.6,38,34,28,30.21,30.00,11,4,17,0.00
2013-3-11,60.2,56.0,52.7,49.0,34.3,29.3,87,45,33,30.04,29.71,28,5,28,0.09
2013-3-12,52.7,40.7,36.7,49.5,35.8,28.4,95,83,68,30.01,29.74,25,5,25,0.39
2013-3-13,38.5,32.7,27.6,32.0,26.9,19.3,92,79,53,30.14,29.94,27,7,32,0.04
2013-3-14,39.2,30.5,25.6,22.5,19.2,17.4,79,64,44,30.23,30.14,24,6,24,0.00
2013-3-15,49.4,37.6,26.0,36.1,26.8,18.1,85,65,52,30.18,29.84,22,6,23,0.00
2013-3-16,40.1,37.1,33.9,38.1,35.1,32.0,95,92,85,29.97,29.64,10,2,10,0.05
2013-3-17,36.8,32.9,28.5,32.7,25.0,22.3,90,73,59,30.23,29.97,15,2,15,0.00
2013-3-18,39.1,33.7,30.1,34.2,27.6,22.5,89,78,63,30.20,29.74,38,6,38,0.22
2013-3-19,47.2,39.0,30.7,41.2,28.2,17.2,95,67,32,29.99,29.73,37,8,37,0.31
2013-3-20,40.0,32.6,27.3,22.6,18.9,14.9,67,57,44,30.00,29.83,23,6,24,0.00
2013-3-21,29.0,25.1,19.3,21.0,14.1,7.5,85,64,48,29.95,29.87,20,5,22,0.00
2013-3-22,33.8,28.5,22.2,22.2,20.1,17.2,88,71,56,30.07,29.93,20,5,20,0.00
2013-3-23,46.4,31.5,18.4,27.6,21.3,16.0,92,69,40,30.08,30.02,16,2,16,0.00
2013-3-24,43.2,33.0,23.9,28.7,23.2,19.3,85,68,46,30.05,29.57,18,3,18,0.00
2013-3-25,36.0,33.3,31.1,33.5,30.7,27.0,95,90,74,29.76,29.48,20,3,20,0.38
2013-3-26,43.2,36.0,30.3,33.6,31.2,28.6,95,83,60,30.09,29.75,15,3,15,0.22
2013-3-27,43.5,36.3,32.3,32.3,30.1,25.4,93,80,51,30.18,30.07,19,5,19,0.03
2013-3-28,42.0,37.3,32.8,34.5,31.2,29.1,94,79,65,30.29,30.14,16,4,16,0.05
2013-3-29,52.1,42.6,35.0,36.3,29.3,23.8,86,62,36,30.29,30.17,14,2,14,0.00
2013-3-30,56.2,41.1,24.9,31.0,25.4,22.3,93,58,27,30.27,30.06,7,1,12,0.00
2013-3-31,51.2,46.9,38.2,46.0,36.3,21.6,93,69,41,30.06,29.73,14,3,14,0.13
2013-4-1,45.6,40.7,32.1,42.7,30.1,14.1,92,69,32,30.02,29.71,27,6,27,0.02
2013-4-2,41.4,32.8,27.1,21.5,17.2,14.3,72,54,36,30.22,30.02,21,4,22,0.00
2013-4-3,40.7,31.3,22.4,24.5,15.3,8.8,75,53,32,30.45,30.21,24,3,24,0.00
2013-4-4,53.9,36.6,16.8,21.8,15.6,10.5,84,48,19,30.44,30.00,17,2,17,0.00
2013-4-5,56.1,42.8,28.9,33.5,24.4,18.4,76,50,29,30.18,29.96,21,4,22,0.00
2013-4-6,60.7,43.0,22.7,25.5,19.4,11.4,87,46,16,30.32,30.07,17,2,21,0.00
2013-4-7,72.0,61.4,50.9,49.0,38.0,20.1,73,43,29,30.07,29.86,28,8,28,0.00
2013-4-8,75.3,61.7,45.6,51.9,46.5,42.3,89,61,37,30.04,29.89,24,4,24,0.00
2013-4-9,80.1,68.9,56.0,57.6,53.2,47.6,80,58,42,30.08,29.87,19,4,19,0.00
2013-4-10,80.6,69.1,59.5,62.6,56.8,52.2,93,66,47,29.96,29.75,16,5,24,0.43
2013-4-11,76.5,65.3,54.2,60.8,57.1,52.5,96,77,54,29.86,29.56,25,3,25,0.01
2013-4-12,68.9,59.6,46.1,60.2,50.6,34.3,94,73,47,29.83,29.50,28,7,28,0.38
2013-4-13,56.7,46.5,39.2,37.9,34.1,31.5,77,63,43,30.01,29.83,26,5,26,0.00
2013-4-14,63.1,49.5,33.6,38.9,33.3,27.3,79,56,35,30.19,30.01,13,2,14,0.00
2013-4-15,66.5,61.2,58.2,49.6,45.1,36.5,70,56,42,30.12,29.99,23,5,23,0.00
2013-4-16,80.3,66.6,56.1,60.0,54.7,48.2,94,67,46,30.20,30.01,27,5,28,0.60
2013-4-17,69.3,59.8,53.0,58.7,54.9,50.5,96,85,64,30.23,30.09,24,2,24,0.01
2013-4-18,83.8,71.7,61.8,65.2,58.5,55.2,83,64,44,30.11,29.78,26,5,26,0.00
2013-4-19,74.0,61.0,44.7,60.7,50.6,32.1,91,69,58,29.83,29.45,30,7,30,0.27
2013-4-20,49.7,41.8,35.3,33.5,28.5,24.3,82,60,43,30.42,29.83,30,7,30,0.01
2013-4-21,56.3,41.4,25.5,29.0,23.5,18.7,89,54,25,30.62,30.42,17,2,18,0.00
2013-4-22,61.4,50.8,42.6,32.0,27.3,23.2,53,41,27,30.50,30.30,25,5,27,0.00
2013-4-23,72.8,56.2,40.7,41.1,35.7,31.9,73,49,25,30.30,29.98,23,4,23,0.00
2013-4-24,73.6,57.8,41.0,57.6,46.3,34.3,93,67,49,30.14,29.72,26,6,26,0.31
2013-4-25,59.1,46.5,35.9,38.3,33.6,27.6,89,64,32,30.38,30.14,22,5,22,0.00
2013-4-26,61.6,49.2,35.7,39.6,33.7,26.5,93,59,29,30.49,30.37,12,1,12,0.00
2013-4-27,74.0,56.3,35.0,42.1,35.8,30.0,84,51,26,30.41,30.17,16,2,16,0.00
2013-4-28,60.6,55.9,51.8,51.2,46.0,40.0,87,70,47,30.18,29.96,26,4,26,0.15
2013-4-29,66.0,58.5,53.5,58.1,51.6,46.5,91,78,63,30.03,29.95,14,2,14,0.08
2013-4-30,71.1,61.4,55.1,55.3,51.8,49.0,86,72,53,30.20,30.02,18,4,18,0.00
2013-5-1,76.8,64.4,53.9,53.0,44.0,31.4,78,51,26,30.31,30.19,20,4,20,0.00
2013-5-2,77.1,64.6,49.7,42.0,36.6,29.4,69,37,19,30.36,30.21,18,3,18,0.00
2013-5-3,73.5,62.8,52.5,46.3,41.0,31.7,58,46,28,30.26,30.17,19,3,19,0.00
2013-5-4,70.6,59.5,47.3,46.1,41.3,35.3,68,52,38,30.22,30.09,22,3,22,0.00
2013-5-5,73.9,60.3,46.9,41.3,35.4,23.8,74,43,17,30.16,30.03,22,4,22,0.00
2013-5-6,68.8,59.1,48.5,54.3,47.1,37.1,80,65,50,30.09,30.01,17,4,18,0.00
2013-5-7,67.2,61.5,56.8,56.1,54.3,52.6,89,77,62,30.03,29.94,17,4,17,0.06
2013-5-8,73.0,62.3,52.3,56.2,52.2,47.5,93,72,44,29.98,29.87,14,2,14,0.19
2013-5-9,75.0,62.5,53.8,59.0,54.8,51.3,93,78,48,29.98,29.88,17,2,17,0.01
2013-5-10,77.7,63.0,53.7,63.4,57.3,50.7,94,83,57,29.99,29.79,26,3,30,0.32
2013-5-11,62.0,57.7,52.9,60.1,55.2,48.1,95,91,83,29.83,29.75,14,3,16,0.26
2013-5-12,53.6,48.5,40.5,49.2,34.5,27.0,91,60,38,30.05,29.81,28,6,28,0.03
2013-5-13,52.2,43.9,33.2,32.2,28.5,24.0,89,57,35,30.20,30.04,20,3,20,0.00
2013-5-14,58.2,46.0,27.9,41.4,33.6,25.9,95,65,44,30.22,29.94,13,2,13,0.00
2013-5-15,86.7,71.5,56.3,63.5,55.2,37.6,77,57,42,29.94,29.69,28,6,31,0.00
2013-5-16,79.5,69.8,61.7,63.8,59.0,47.6,94,71,35,29.95,29.73,17,5,19,0.20
2013-5-17,82.5,69.2,60.2,62.0,58.0,50.2,94,71,34,30.08,29.95,11,2,11,0.00
2013-5-18,83.8,68.6,56.7,63.2,56.5,47.3,88,67,46,30.11,30.01,16,2,17,0.00
2013-5-19,78.6,67.7,60.9,64.8,60.0,56.4,86,77,60,30.10,29.97,16,3,16,0.00
2013-5-20,87.3,74.5,63.6,67.8,63.9,59.4,88,71,48,30.03,29.88,14,2,14,0.00
2013-5-21,87.2,76.3,64.1,70.6,66.0,62.0,96,72,49,29.94,29.79,17,4,17,0.00
2013-5-22,88.4,74.0,64.4,66.2,62.8,59.5,92,70,44,29.86,29.73,29,5,29,0.32
2013-5-23,76.0,65.6,58.6,64.3,61.0,56.6,94,86,60,29.83,29.74,21,4,21,0.74
2013-5-24,58.5,45.6,41.5,56.4,39.7,33.6,94,81,61,30.28,29.82,20,4,20,0.04
2013-5-25,62.4,49.0,37.4,40.6,35.6,31.5,86,62,34,30.33,30.21,21,4,21,0.00
2013-5-26,67.4,51.8,34.4,41.8,37.3,32.1,93,62,33,30.30,30.21,17,2,17,0.00
2013-5-27,64.7,54.0,37.8,52.3,43.8,35.5,93,71,44,30.28,30.13,10,1,10,0.00
2013-5-28,79.6,65.7,54.4,67.4,59.0,48.3,95,80,57,30.13,29.98,22,3,22,0.51
2013-5-29,85.7,75.0,63.2,65.9,61.5,58.5,89,64,45,30.07,30.00,21,5,21,0.00
2013-5-30,88.3,74.4,58.6,68.0,63.0,56.9,95,70,40,30.16,30.05,13,2,13,0.00
2013-5-31,89.0,76.0,61.1,68.1,63.4,59.4,96,68,41,30.10,29.95,15,3,15,0.00
2013-6-1,88.0,77.1,66.2,68.1,65.3,62.0,93,69,49,29.99,29.79,21,4,21,0.03
2013-6-2,80.1,74.3,67.5,67.5,63.6,59.7,92,70,51,29.83,29.75,24,6,24,0.05
2013-6-3,67.5,63.2,51.9,64.4,56.9,44.9,92,80,63,30.04,29.82,11,2,11,0.00
2013-6-4,73.4,58.3,39.6,51.2,45.8,37.8,96,66,40,30.17,30.04,11,1,11,0.00
2013-6-5,81.5,64.9,47.8,63.0,53.6,45.3,92,69,50,30.14,29.91,20,2,25,0.00
2013-6-6,69.9,65.8,62.1,61.6,60.3,58.7,94,83,68,29.94,29.76,15,2,15,0.62
2013-6-7,67.8,64.3,60.8,64.4,61.9,56.8,96,92,87,29.81,29.70,13,1,16,0.01
2013-6-8,72.9,62.3,55.9,58.3,55.7,53.3,92,80,59,30.10,29.81,12,2,12,0.00
2013-6-9,84.0,70.2,54.3,66.5,60.6,52.6,96,74,50,30.16,30.00,17,2,17,0.00
2013-6-10,79.1,70.0,65.6,72.1,65.5,62.0,94,86,77,30.00,29.75,18,3,18,0.48
2013-6-11,78.3,68.8,64.2,67.3,63.7,61.7,95,84,62,29.87,29.76,16,4,16,0.13
2013-6-12,82.8,73.4,64.2,69.9,65.9,61.9,93,78,55,29.89,29.71,14,2,14,0.00
2013-6-13,73.0,67.5,60.8,70.9,63.0,55.3,96,86,77,29.75,29.46,24,5,24,1.21
2013-6-14,74.8,64.9,58.0,60.3,56.6,54.5,89,76,55,30.03,29.74,15,2,15,0.00
2013-6-15,78.5,65.7,51.2,58.3,52.7,46.4,97,67,34,30.12,29.99,16,2,16,0.00
2013-6-16,75.1,67.9,62.2,67.9,62.7,55.4,94,83,71,30.01,29.87,21,4,21,0.23
2013-6-17,83.3,73.7,66.8,67.1,63.8,58.7,92,73,48,29.95,29.85,13,3,13,0.00
2013-6-18,77.3,68.8,62.8,69.1,64.0,60.8,94,85,70,29.91,29.80,13,1,13,0.00
2013-6-19,77.6,67.1,55.9,62.0,53.7,45.7,93,65,35,30.12,29.90,13,3,13,0.00
2013-6-20,83.5,68.5,51.6,62.0,54.9,49.4,94,66,37,30.21,30.12,12,1,12,0.00
2013-6-21,87.4,72.3,54.2,65.4,58.4,52.4,96,66,35,30.24,30.12,11,1,11,0.00
2013-6-22,88.6,76.2,61.5,69.9,65.3,59.2,94,71,47,30.18,30.03,13,2,13,0.00
2013-6-23,89.8,77.8,64.8,72.0,66.7,62.7,94,71,45,30.12,30.01,13,2,13,0.00
2013-6-24,88.9,78.0,65.0,70.2,67.1,63.0,95,71,46,30.10,29.96,11,3,19,0.00
2013-6-25,88.8,76.6,65.1,70.2,67.0,61.9,94,74,51,30.01,29.83,30,5,30,0.34
2013-6-26,81.8,72.4,64.6,70.9,67.2,63.1,97,85,64,29.97,29.79,20,3,20,1.54
2013-6-27,75.0,70.0,66.9,70.2,67.6,65.1,96,92,84,29.79,29.60,16,3,16,0.81
2013-6-28,75.7,68.2,61.1,69.5,64.9,59.8,97,90,73,29.62,29.47,18,3,18,0.29
2013-6-29,80.3,69.6,60.7,68.4,63.6,59.4,97,82,58,29.68,29.52,20,3,20,0.07
2013-6-30,87.2,72.4,60.9,69.9,64.2,59.8,97,77,44,29.82,29.67,25,1,25,0.00
2013-7-1,80.9,71.9,66.9,70.3,67.1,64.5,95,86,66,29.93,29.77,14,2,14,0.62
2013-7-2,84.2,75.2,66.8,73.2,68.8,65.6,96,82,63,30.04,29.91,12,2,12,0.35
2013-7-3,88.4,76.4,70.5,72.1,68.5,65.9,94,78,54,30.14,30.04,12,1,12,0.05
2013-7-4,89.8,75.9,70.0,72.7,69.7,66.3,96,83,51,30.18,30.08,31,2,31,0.61
2013-7-5,87.5,77.1,67.4,72.0,69.3,66.3,98,79,57,30.14,30.06,16,3,18,0.01
2013-7-6,92.6,79.2,68.9,74.4,70.5,67.4,96,77,51,30.14,29.98,12,1,12,0.01
2013-7-7,81.3,74.1,69.7,71.5,68.9,67.2,94,84,65,30.06,29.97,14,3,14,0.15
2013-7-8,82.5,74.1,67.7,70.6,67.7,63.9,95,81,62,30.10,30.01,13,4,14,0.25
2013-7-9,82.5,73.5,68.0,74.6,69.8,66.5,96,89,76,30.07,29.94,21,4,21,0.31
2013-7-10,86.7,72.9,66.3,76.6,69.1,64.2,97,89,69,30.01,29.78,28,4,28,1.18
2013-7-11,78.9,69.9,62.6,68.0,63.5,59.5,96,82,56,29.97,29.85,11,1,11,0.00
2013-7-12,74.2,66.7,58.9,66.4,62.0,57.3,96,86,72,30.09,29.95,11,2,11,0.00
2013-7-13,85.1,73.6,63.0,71.0,65.7,61.0,94,77,55,30.21,30.06,9,1,10,0.00
2013-7-14,91.8,81.3,73.9,72.4,68.8,66.7,82,67,47,30.27,30.19,16,2,16,0.00
2013-7-15,91.1,79.7,67.1,73.7,69.3,65.1,95,72,51,30.31,30.20,11,1,11,0.00
2013-7-16,91.8,79.7,71.0,75.8,71.6,68.3,93,77,54,30.28,30.18,15,1,15,0.00
2013-7-17,91.0,78.7,71.5,76.7,72.6,68.7,92,82,60,30.26,30.12,14,1,14,0.00
2013-7-18,93.0,81.6,70.6,78.4,73.6,68.8,96,78,55,30.15,29.98,12,2,12,0.00
2013-7-19,90.4,79.8,74.4,77.4,72.7,68.1,92,80,58,29.99,29.83,18,5,26,0.00
2013-7-20,81.5,74.7,70.2,73.9,69.7,66.8,95,84,74,29.89,29.81,23,5,23,0.28
2013-7-21,86.8,75.0,69.4,72.0,68.4,66.6,92,81,54,29.94,29.86,13,2,13,0.00
2013-7-22,82.8,72.2,65.5,73.6,68.7,64.0,96,89,69,29.91,29.74,11,0,11,0.65
2013-7-23,83.5,72.0,64.9,70.1,66.9,62.5,96,85,57,29.74,29.65,16,3,19,0.04
2013-7-24,73.2,66.2,56.8,64.0,58.1,53.9,95,76,55,29.97,29.71,14,2,14,0.00
2013-7-25,77.3,64.2,51.8,57.8,54.0,50.1,95,72,44,30.07,29.96,12,2,12,0.00
2013-7-26,81.7,67.9,51.8,61.5,57.0,50.4,97,71,45,30.09,29.98,10,1,10,0.00
2013-7-27,73.5,66.6,59.1,69.0,63.6,57.4,95,90,76,29.99,29.83,10,0,10,0.65
2013-7-28,78.0,69.6,59.9,66.3,61.2,53.4,95,77,45,30.01,29.83,17,4,17,0.10
2013-7-29,74.0,63.9,51.8,58.7,55.3,50.4,97,76,51,30.18,30.01,19,3,19,0.00
2013-7-30,78.5,65.6,51.8,61.9,57.1,50.4,97,76,50,30.23,30.14,10,1,10,0.00
2013-7-31,81.4,67.7,56.0,66.9,61.2,54.6,96,81,49,30.14,29.94,11,1,15,0.01
2013-8-1,81.8,71.1,65.4,69.2,64.7,62.0,96,82,54,29.94,29.83,14,3,14,0.06
2013-8-2,77.4,68.9,59.2,63.6,59.6,53.9,96,75,46,29.96,29.87,19,3,19,0.00
2013-8-3,73.5,67.7,60.6,67.2,63.9,58.9,95,88,77,29.97,29.90,18,4,18,0.25
2013-8-4,74.8,63.2,53.9,61.9,56.6,52.8,98,81,52,30.07,29.96,15,1,15,0.06
2013-8-5,75.6,63.6,50.1,58.9,54.5,48.7,97,75,48,30.12,30.01,10,1,10,0.00
2013-8-6,83.8,68.8,54.0,63.9,58.2,51.9,95,72,43,30.02,29.94,10,1,10,0.00
2013-8-7,86.1,73.2,66.6,71.7,66.2,61.5,95,80,59,29.98,29.88,21,2,21,0.36
2013-8-8,86.5,74.2,65.2,74.4,69.3,63.8,97,86,64,29.95,29.87,13,2,17,0.09
2013-8-9,78.2,73.2,67.1,73.5,70.4,65.5,95,91,79,29.98,29.85,14,3,15,0.39
2013-8-10,81.7,71.3,62.3,67.2,64.4,58.7,97,80,56,30.07,29.97,11,1,11,0.00
2013-8-11,84.8,71.7,61.2,70.4,65.5,59.7,97,82,55,30.09,29.97,9,1,9,0.45
2013-8-12,83.1,73.5,65.4,68.7,66.3,64.1,97,80,55,30.03,29.85,13,2,13,0.00
2013-8-13,77.3,69.0,57.6,69.5,63.3,50.8,95,83,62,29.94,29.76,17,3,17,0.30
2013-8-14,68.9,58.4,48.6,56.1,51.8,46.8,96,80,60,30.14,29.94,14,2,14,0.00
2013-8-15,75.8,61.2,46.0,56.0,51.1,44.7,97,73,41,30.20,30.09,8,1,9,0.00
2013-8-16,79.6,65.6,50.6,60.0,54.9,48.9,96,71,43,30.16,30.10,9,1,10,0.00
2013-8-17,78.5,67.0,55.1,61.0,56.3,52.1,92,71,46,30.24,30.16,14,1,14,0.00
2013-8-18,75.2,68.5,64.5,64.3,60.2,55.5,90,75,65,30.21,30.11,11,1,11,0.00
2013-8-19,80.8,69.4,64.2,69.1,64.9,61.6,96,86,63,30.12,30.03,8,1,8,0.10
2013-8-20,84.9,69.9,56.4,66.9,61.0,55.3,97,76,46,30.17,30.08,9,1,9,0.01
2013-8-21,86.6,71.7,57.1,69.7,63.3,55.7,97,77,49,30.17,30.03,11,1,12,0.00
2013-8-22,83.2,71.4,65.8,72.1,66.9,63.8,94,86,63,30.08,29.95,25,3,25,0.49
2013-8-23,80.8,70.5,62.2,69.4,64.3,59.6,96,83,50,30.11,29.95,8,1,8,0.04
2013-8-24,82.3,68.8,54.8,65.1,58.7,53.4,97,73,42,30.28,30.11,10,1,10,0.00
2013-8-25,82.4,69.8,55.0,64.5,59.5,52.9,95,72,48,30.35,30.21,13,2,13,0.00
2013-8-26,84.0,71.5,58.4,68.1,63.1,56.7,95,76,56,30.23,29.99,17,4,17,0.00
2013-8-27,79.1,74.3,70.4,73.0,69.2,65.5,92,84,77,30.00,29.89,15,4,15,0.00
2013-8-28,73.6,70.9,67.8,72.4,69.6,65.8,97,96,90,29.92,29.77,16,1,16,3.02
2013-8-29,84.4,74.6,68.1,72.4,69.2,66.3,98,85,62,30.00,29.88,11,1,11,0.00
2013-8-30,86.7,74.7,62.4,72.5,67.7,61.2,98,80,57,29.98,29.80,15,2,15,0.01
2013-8-31,86.0,76.6,70.1,72.8,69.4,67.3,93,79,57,29.82,29.73,14,4,14,0.00
2013-9-1,80.8,74.6,70.0,73.5,69.5,67.8,94,85,69,29.81,29.73,13,2,14,0.14
2013-9-2,84.1,73.7,66.8,73.3,69.1,65.3,97,86,62,29.80,29.68,16,3,16,0.30
2013-9-3,73.6,66.2,60.4,66.6,60.1,55.9,97,82,56,30.01,29.78,18,2,18,0.01
2013-9-4,77.8,63.8,50.7,60.7,56.2,49.6,97,78,51,30.12,30.01,13,2,14,0.00
2013-9-5,73.8,64.7,52.9,60.8,55.3,47.8,89,73,48,30.19,30.04,9,3,15,0.00
2013-9-6,74.8,58.5,43.3,52.6,47.4,41.2,95,71,35,30.27,30.13,9,1,9,0.00
2013-9-7,78.5,62.9,45.6,58.6,52.1,44.0,96,71,39,30.13,29.94,12,2,12,0.00
2013-9-8,78.9,68.5,60.5,68.4,62.5,56.6,94,82,65,30.03,29.90,11,2,11,0.24
2013-9-9,80.3,68.5,58.7,69.6,62.2,55.2,95,81,67,30.08,29.99,10,2,10,0.19
2013-9-10,88.2,77.1,65.7,76.7,70.8,64.3,97,82,66,30.11,30.02,18,4,18,0.00
2013-9-11,87.7,76.7,71.9,76.9,71.9,69.0,94,86,66,30.11,29.97,18,2,18,0.12
2013-9-12,78.7,71.5,61.8,71.3,68.1,60.0,95,89,72,29.97,29.75,15,3,23,0.29
2013-9-13,66.8,59.1,50.5,60.1,53.9,45.7,97,83,67,30.01,29.77,16,2,18,0.01
2013-9-14,66.3,54.6,46.9,49.2,46.7,42.3,93,76,50,30.17,30.01,10,1,10,0.00
2013-9-15,71.9,57.3,42.6,57.7,50.5,41.3,96,80,55,30.20,30.06,15,2,15,0.00
2013-9-16,70.8,61.3,52.6,57.4,54.9,49.0,96,80,60,30.29,30.06,12,2,12,0.24
2013-9-17,70.6,56.4,43.8,53.5,45.6,39.7,96,71,37,30.40,30.26,11,2,11,0.00
2013-9-18,75.5,61.3,50.1,55.1,48.1,39.8,77,63,40,30.27,30.11,11,2,11,0.00
2013-9-19,78.0,64.8,58.7,64.1,58.5,52.3,95,81,54,30.14,30.01,12,1,12,0.00
2013-9-20,82.3,69.1,54.8,69.7,62.6,53.1,96,81,60,30.03,29.82,12,2,12,0.00
2013-9-21,73.8,65.4,58.8,67.2,61.8,57.5,96,88,75,29.82,29.62,17,2,17,1.08
2013-9-22,63.4,56.6,52.5,57.6,52.0,48.0,97,85,59,30.00,29.76,12,1,13,0.02
2013-9-23,58.6,51.4,41.5,49.3,45.0,39.9,94,79,61,30.15,30.00,11,1,12,0.00
2013-9-24,70.8,51.6,36.0,52.9,44.3,34.8,97,79,47,30.14,29.97,8,1,8,0.00
2013-9-25,77.3,58.3,44.2,54.9,48.2,42.6,95,73,34,29.99,29.88,10,1,10,0.00
2013-9-26,77.5,59.7,45.7,55.1,50.0,44.3,96,74,38,30.07,29.93,9,1,9,0.00
2013-9-27,75.9,59.5,45.0,58.1,51.2,43.7,97,77,45,30.19,30.07,9,1,9,0.00
2013-9-28,72.0,60.7,50.9,56.7,52.0,48.5,96,75,52,30.26,30.15,15,2,15,0.00
2013-9-29,76.7,63.7,54.6,57.1,51.9,47.1,78,67,45,30.15,29.99,12,1,12,0.00
2013-9-30,73.3,62.1,49.6,63.0,56.2,47.8,96,82,67,30.05,29.97,14,2,14,0.00
2013-10-1,78.2,65.8,58.1,63.1,59.2,56.1,94,80,55,30.07,29.98,15,2,15,0.00
2013-10-2,79.9,67.5,57.3,66.0,61.3,55.6,96,81,58,30.08,30.01,14,2,14,0.00
2013-10-3,79.7,67.9,56.6,67.9,62.3,55.5,97,83,63,30.09,29.99,15,2,16,0.00
2013-10-4,82.3,70.9,64.0,69.2,65.5,62.4,96,84,59,30.08,29.99,15,2,15,0.00
2013-10-5,83.0,70.2,63.9,69.7,66.0,62.6,97,87,62,30.06,29.95,12,1,12,0.00
2013-10-6,87.4,75.1,65.7,67.6,64.2,59.3,95,72,43,29.95,29.73,20,3,20,0.00
2013-10-7,73.5,58.9,45.5,61.5,50.6,42.5,94,75,54,30.11,29.64,21,4,21,0.35
2013-10-8,67.1,51.8,39.1,50.6,44.0,37.7,97,78,45,30.31,30.11,11,1,11,0.00
2013-10-9,68.1,52.8,39.5,49.4,42.0,36.7,96,71,32,30.34,30.24,9,1,9,0.00
2013-10-10,68.0,54.7,43.2,51.1,45.5,40.6,92,73,43,30.24,30.09,9,1,9,0.01
2013-10-11,58.0,54.6,51.4,55.8,52.4,49.1,96,92,85,30.09,30.05,9,2,9,0.55
2013-10-12,76.3,62.3,53.0,63.7,56.8,51.3,96,83,62,30.16,30.04,11,1,11,0.00
2013-10-13,71.3,62.1,58.2,60.3,56.7,53.9,93,83,66,30.25,30.13,11,1,13,0.19
2013-10-14,64.9,60.1,56.8,59.2,56.8,54.3,93,89,80,30.28,30.21,8,1,8,0.00
2013-10-15,72.4,62.8,54.3,60.1,55.9,52.1,96,79,60,30.22,29.97,12,1,12,0.00
2013-10-16,66.0,61.4,56.7,61.3,56.1,50.3,91,83,70,29.98,29.85,15,2,15,0.04
2013-10-17,63.8,56.3,49.9,60.0,53.8,47.4,96,91,83,29.89,29.63,27,2,27,0.52
2013-10-18,62.0,51.6,41.4,47.7,44.0,39.3,93,77,49,30.03,29.88,18,4,18,0.00
2013-10-19,54.9,45.1,35.9,49.4,41.8,34.7,97,88,75,29.99,29.77,20,2,21,0.07
2013-10-20,58.4,45.6,38.1,42.8,38.6,36.2,94,78,48,30.08,29.95,20,4,20,0.01
2013-10-21,66.5,49.5,33.7,45.3,37.8,32.4,97,69,35,30.09,29.87,19,2,19,0.00
2013-10-22,55.8,48.1,39.7,47.8,37.9,29.1,92,69,42,29.96,29.82,14,3,17,0.11
2013-10-23,42.2,40.0,37.0,39.2,36.7,34.8,92,88,79,29.95,29.76,21,1,21,0.07
2013-10-24,46.3,39.2,34.1,35.1,32.4,28.6,94,78,51,30.17,29.94,14,4,17,0.01
2013-10-25,46.2,37.3,31.9,37.8,32.8,29.6,92,84,70,30.35,30.17,19,4,19,0.00
2013-10-26,51.2,41.8,32.9,32.7,29.8,27.2,86,65,43,30.27,29.90,26,7,26,0.00
2013-10-27,53.4,42.3,31.9,37.5,32.4,29.4,91,70,45,30.11,29.97,16,2,20,0.00
2013-10-28,61.3,42.0,27.7,41.8,33.1,26.1,96,75,37,30.29,30.10,9,1,9,0.00
2013-10-29,61.0,45.7,31.7,42.0,37.0,29.9,96,74,43,30.38,30.26,9,0,9,0.00
2013-10-30,67.3,51.8,40.6,53.2,45.7,37.1,94,80,58,30.26,30.10,9,1,9,0.00
2013-10-31,68.9,62.0,53.7,59.3,56.5,51.5,95,83,67,30.10,29.46,27,4,27,0.17
2013-11-1,72.4,60.5,45.7,58.0,48.5,42.6,90,66,48,29.67,29.31,30,7,33,0.18
2013-11-2,53.9,48.7,44.3,45.2,43.2,40.4,92,81,64,29.92,29.62,20,3,20,0.05
2013-11-3,50.2,41.8,29.2,41.8,33.5,25.2,91,74,46,30.45,29.92,11,2,14,0.00
2013-11-4,46.5,36.5,25.4,25.9,22.6,19.9,90,60,40,30.57,30.45,24,3,24,0.00
2013-11-5,57.0,46.6,38.9,34.1,29.0,23.9,62,51,39,30.53,30.35,15,3,15,0.00
2013-11-6,74.0,57.4,37.3,51.2,44.2,31.6,90,64,43,30.35,29.89,21,4,21,0.00
2013-11-7,65.6,47.4,39.5,56.2,40.7,25.3,95,78,54,30.11,29.82,22,4,22,0.48
2013-11-8,42.9,37.4,26.8,31.5,28.0,23.7,89,69,53,30.31,30.07,18,4,20,0.00
2013-11-9,56.8,41.5,24.8,34.1,26.3,22.3,93,60,31,30.31,29.98,24,4,24,0.00
2013-11-10,51.7,45.3,35.7,37.0,32.0,28.0,74,60,42,30.26,29.95,27,7,27,0.00
2013-11-11,47.9,40.8,31.6,39.8,31.3,27.0,92,70,49,30.28,30.03,22,5,22,0.04
2013-11-12,40.5,31.1,27.9,38.0,25.1,18.7,94,79,54,30.47,30.06,18,3,18,0.14
2013-11-13,37.7,30.3,24.4,24.7,22.4,20.2,87,73,52,30.54,30.40,17,5,19,0.01
2013-11-14,49.7,36.5,28.8,24.4,22.1,20.6,77,58,32,30.40,30.19,19,6,22,0.00
2013-11-15,56.0,44.5,31.5,40.7,26.3,21.4,80,51,28,30.24,30.14,19,3,19,0.01
2013-11-16,62.8,52.2,36.2,48.7,44.1,34.6,96,75,57,30.24,30.03,15,2,17,0.00
2013-11-17,64.1,59.2,53.6,58.5,53.2,47.3,89,81,70,30.04,29.50,22,5,22,0.61
2013-11-18,56.1,49.9,39.6,50.7,35.2,26.4,86,58,40,30.02,29.60,28,10,28,0.00
2013-11-19,39.5,35.4,27.5,27.9,25.8,22.9,83,68,60,30.42,30.01,20,4,20,0.00
2013-11-20,48.4,34.3,22.2,23.6,18.4,11.6,89,58,25,30.50,30.40,20,2,20,0.00
2013-11-21,55.6,45.1,35.0,42.1,32.0,19.0,73,60,48,30.45,30.23,12,3,15,0.00
2013-11-22,53.5,50.2,37.7,52.3,47.1,32.6,96,89,67,30.23,30.02,22,4,22,0.22
2013-11-23,39.1,31.9,20.5,33.2,23.4,7.7,90,71,51,30.33,30.10,28,6,28,0.00
2013-11-24,26.3,20.2,15.6,14.4,10.7,7.6,77,66,54,30.56,30.33,20,5,21,0.00
2013-11-25,37.7,27.1,15.2,28.5,11.7,8.8,84,55,33,30.55,30.24,24,3,24,0.00
2013-11-26,37.7,33.5,30.8,36.7,32.1,28.4,97,94,87,30.29,29.69,12,1,15,1.12
2013-11-27,35.0,29.6,23.2,34.0,26.3,16.8,96,88,72,30.12,29.69,15,5,24,0.05
2013-11-28,30.2,25.5,18.5,21.5,17.5,12.9,83,72,58,30.45,30.12,17,4,18,0.00
2013-11-29,36.0,29.1,23.3,23.6,21.0,18.4,88,72,54,30.68,30.44,9,1,10,0.01
2013-11-30,38.2,31.5,24.5,25.7,22.3,18.6,79,69,56,30.66,30.25,21,4,21,0.00
2013-12-1,47.7,38.3,24.5,33.6,28.6,21.5,90,69,50,30.25,29.98,17,2,17,0.00
2013-12-2,53.0,42.6,33.8,39.1,35.2,30.5,90,76,58,29.99,29.81,11,1,14,0.00
2013-12-3,56.9,43.9,37.4,44.1,38.4,34.9,96,82,54,29.91,29.84,10,1,10,0.02
2013-12-4,63.7,49.9,35.6,49.1,41.8,33.1,94,74,57,30.00,29.88,15,1,15,0.00
2013-12-5,67.3,58.7,43.4,59.6,53.5,41.8,96,83,67,29.98,29.83,18,4,19,0.46
2013-12-6,43.4,35.1,29.7,41.7,33.2,27.9,95,93,86,30.28,29.98,18,3,18,0.32
2013-12-7,31.7,27.4,21.1,28.2,22.6,15.3,94,82,70,30.61,30.25,11,2,11,0.01
2013-12-8,31.2,24.1,16.3,27.7,19.7,13.1,90,83,76,30.61,30.13,24,3,24,0.00
2013-12-9,40.4,36.1,31.2,39.3,32.6,25.8,96,87,78,30.14,29.99,21,6,21,0.31
2013-12-10,31.2,27.6,23.5,26.1,20.3,13.2,90,74,53,30.27,30.02,23,6,25,0.01
2013-12-11,30.8,25.0,19.7,22.7,16.0,13.1,88,69,52,30.38,30.26,20,5,21,0.00
2013-12-12,23.5,20.2,14.0,17.0,9.4,6.0,82,63,49,30.50,30.29,22,6,22,0.00
2013-12-13,36.9,26.5,20.1,21.2,14.7,8.1,82,61,48,30.30,30.23,17,4,17,0.01
2013-12-14,37.4,32.8,26.6,35.6,27.9,19.3,93,82,56,30.28,29.67,22,3,22,0.34
2013-12-15,40.5,31.3,22.8,39.1,26.8,10.9,96,83,58,30.03,29.61,31,8,31,0.07
2013-12-16,26.9,22.9,19.8,23.0,17.0,11.3,87,78,62,30.19,30.02,19,2,20,0.00
2013-12-17,36.0,32.0,26.9,32.7,28.4,23.0,94,87,79,30.08,29.95,18,3,18,0.13
2013-12-18,29.9,27.5,22.8,25.3,22.5,18.8,89,81,74,30.22,30.04,18,5,20,0.00
2013-12-19,55.2,42.7,28.2,37.3,28.7,17.0,82,59,42,30.13,30.03,22,5,24,0.00
2013-12-20,57.9,51.0,34.9,50.0,39.6,28.0,91,68,40,30.04,29.89,24,6,24,0.09
2013-12-21,63.6,58.9,54.7,59.6,55.1,48.7,96,88,74,29.89,29.65,18,5,18,1.19
2013-12-22,71.3,61.6,56.5,60.4,55.2,50.4,93,80,63,29.91,29.53,30,8,31,0.26
2013-12-23,56.5,40.6,31.3,50.5,36.4,22.8,94,85,68,30.27,29.90,15,3,17,0.22
2013-12-24,31.3,24.4,14.4,24.9,16.2,8.2,90,71,52,30.54,30.23,23,5,23,0.01
2013-12-25,30.3,21.0,11.8,21.4,13.6,7.6,87,73,57,30.55,30.27,8,1,8,0.00
2013-12-26,37.2,30.9,24.7,28.1,23.3,16.8,92,74,55,30.37,30.17,26,5,28,0.02
2013-12-27,42.9,31.9,20.1,27.9,22.4,15.7,90,69,53,30.39,30.29,16,3,17,0.01
2013-12-28,52.2,42.2,35.0,32.0,26.5,22.5,61,54,44,30.29,30.06,25,7,25,0.00
2013-12-29,43.1,40.5,39.1,40.9,36.2,25.9,96,86,51,30.07,29.62,25,2,25,0.65
2013-12-30,40.4,28.4,22.9,38.3,23.8,15.9,92,83,72,30.20,29.83,20,4,20,0.01
2013-12-31,26.5,24.3,22.3,23.7,19.4,15.6,91,81,73,30.34,30.10,28,5,28,0.00
2014-1-1,38.4,30.6,25.1,28.4,23.8,19.5,86,76,61,30.36,30.06,18,2,18,0.03
2014-1-2,30.8,26.2,13.1,28.4,23.3,9.6,93,89,85,30.06,29.67,17,2,17,0.00